N9CQS-15 Weather Reports


time (UTC)temp
F
wind
direction
speed
knots
gust
knots
rain 1hr
in
rain 24hr
in
rain mn
in
humidity
%
barometer
mb
20260905223901 90 23 4.3 5.2 0.00 0.00 0.00 64 1011.8
20260905222902 91 338 4.3 5.2 0.00 0.00 0.00 63 1011.5
20260905221902 92 23 3.5 5.2 0.00 0.00 0.00 63 1011.5
20260905220902 92 23 3.5 3.5 0.00 0.00 0.00 63 1011.5
20260905214902 92 0 3.5 6.1 0.00 0.00 0.00 63 1011.5
20260905213902 92 23 3.5 4.3 0.00 0.00 0.00 63 1011.5
20260905212901 93 0 5.2 5.2 0.00 0.00 0.00 62 1011.5
20260905211901 93 23 1.7 4.3 0.00 0.00 0.00 62 1011.5
20260905210902 93 338 2.6 2.6 0.00 0.00 0.00 61 1011.8
20260905204901 94 0 3.5 5.2 0.00 0.00 0.00 60 1011.8
20260905203902 95 293 3.5 3.5 0.00 0.00 0.00 58 1011.8
20260905202902 95 338 2.6 3.5 0.00 0.00 0.00 58 1011.8
20260905201901 94 293 3.5 5.2 0.00 0.00 0.00 57 1011.8
20260905200902 96 315 3.5 3.5 0.00 0.00 0.00 55 1011.8
20260905194902 96 293 2.6 4.3 0.00 0.00 0.00 54 1011.8
20260905193901 96 270 1.7 4.3 0.00 0.00 0.00 56 1012.1
20260905192902 93 293 3.5 4.3 0.00 0.00 0.00 59 1012.1
20260905191901 96 293 5.2 5.2 0.00 0.00 0.00 55 1012.1
20260905190901 96 293 4.3 4.3 0.00 0.00 0.00 54 1012.5
20260905184902 96 23 3.5 3.5 0.00 0.00 0.00 56 1012.5
20260905183901 93 315 2.6 3.5 0.00 0.00 0.00 61 1012.5
20260905182902 93 293 3.5 3.5 0.00 0.00 0.00 59 1012.8
20260905181901 95 293 3.5 4.3 0.00 0.00 0.00 57 1012.8
20260905180901 97 293 3.5 3.5 0.00 0.00 0.00 53 1012.8
20260905174902 97 315 3.5 3.5 0.00 0.00 0.00 53 1012.8
20260905173901 96 293 3.5 5.2 0.00 0.00 0.00 54 1012.8
20260905172902 96 315 3.5 4.3 0.00 0.00 0.00 54 1013.2
20260905171902 95 293 3.5 4.3 0.00 0.00 0.00 56 1013.2
20260905170901 96 270 3.5 3.5 0.00 0.00 0.00 55 1013.2
20260905170101 94 293 4.3 5.2 0.00 0.00 0.00 57 1013.2
20260905164902 95 270 1.7 2.6 0.00 0.00 0.00 60 1013.2
20260905163901 95 203 1.7 3.5 0.00 0.00 0.00 59 1013.2
20260905162902 94 293 3.5 3.5 0.00 0.00 0.00 59 1013.5
20260905161901 93 270 0.9 3.5 0.00 0.00 0.00 64 1013.2
20260905160902 94 225 1.7 1.7 0.00 0.00 0.00 61 1013.5
20260905154902 91 248 1.7 2.6 0.00 0.00 0.00 67 1013.5
20260905153902 91 270 1.7 2.6 0.00 0.00 0.00 66 1013.5
20260905152901 91 293 2.6 2.6 0.00 0.00 0.00 67 1013.2
20260905151902 90 270 1.7 2.6 0.00 0.00 0.00 69 1013.2
20260905150902 89 270 1.7 1.7 0.00 0.00 0.00 67 1013.2
20260905144902 87 225 2.6 2.6 0.00 0.00 0.00 72 1013.2
20260905143901 86 270 1.7 2.6 0.00 0.00 0.00 74 1013.2
20260905142901 85 293 3.5 3.5 0.00 0.00 0.00 75 1013.2
20260905141902 84 203 0.9 2.6 0.00 0.00 0.00 77 1013.2
20260905140901 83 248 1.7 1.7 0.00 0.00 0.00 77 1013.5
20260905134902 82 225 2.6 2.6 0.00 0.00 0.00 77 1013.2
20260905133901 81 203 1.7 2.6 0.00 0.00 0.00 80 1013.2
20260905132902 80 248 0.9 2.6 0.00 0.00 0.00 81 1013.2
20260905131901 79 180 2.6 2.6 0.00 0.00 0.00 81 1013.2
20260905130902 79 180 0.0 0.0 0.00 0.00 0.00 82 1013.5
20260905124901 78 203 0.0 1.7 0.00 0.00 0.00 83 1013.2
20260905123901 77 180 0.0 1.7 0.00 0.00 0.00 83 1013.2
20260905122902 77 180 1.7 1.7 0.00 0.00 0.00 83 1013.2
20260905121901 77 135 0.0 0.0 0.00 0.00 0.00 84 1013.2
20260905120902 77 180 0.0 0.0 0.00 0.00 0.00 85 1013.2
20260905114902 76 180 0.0 0.0 0.00 0.00 0.00 86 1012.8
20260905113901 76 180 0.0 0.0 0.00 0.00 0.00 86 1012.8
20260905112902 76 180 0.0 0.0 0.00 0.00 0.00 86 1012.8
20260905111902 76 180 0.0 0.0 0.00 0.00 0.00 86 1012.5
20260905110902 76 203 0.0 0.0 0.00 0.00 0.00 86 1012.8
20260905104902 76 180 0.0 0.0 0.00 0.00 0.00 86 1012.8
20260905103901 76 180 0.0 0.0 0.00 0.00 0.00 86 1012.8
20260905102902 76 180 0.0 0.0 0.00 0.00 0.00 86 1012.8
20260905101901 76 180 0.0 0.0 0.00 0.00 0.00 86 1012.8
20260905100902 76 225 0.0 0.0 0.00 0.00 0.00 86 1012.8
20260905094902 76 270 0.0 0.0 0.00 0.00 0.00 86 1012.8
20260905093901 76 180 0.0 0.0 0.00 0.00 0.00 86 1012.8
20260905092902 76 293 0.0 0.0 0.00 0.00 0.00 86 1012.8
20260905091902 76 180 0.0 1.7 0.00 0.00 0.00 86 1012.8
20260905090901 76 180 0.0 0.0 0.00 0.00 0.00 85 1012.8
20260905084902 76 270 0.0 0.0 0.00 0.00 0.00 85 1012.5
20260905083901 77 180 0.0 0.0 0.00 0.00 0.00 84 1012.5
20260905082902 77 180 0.0 0.0 0.00 0.00 0.00 84 1012.5
20260905081902 77 158 0.0 0.0 0.00 0.00 0.00 84 1012.5
20260905080902 77 180 0.0 0.0 0.00 0.00 0.00 84 1012.5
20260905080101 77 180 0.0 0.0 0.00 0.00 0.00 84 1012.5
20260905074901 77 180 0.0 0.0 0.00 0.00 0.00 85 1012.1
20260905073901 77 203 0.0 0.0 0.00 0.00 0.00 85 1012.5
20260905072902 77 158 0.0 0.0 0.00 0.00 0.00 85 1012.5
20260905071902 77 180 0.0 0.0 0.00 0.00 0.00 85 1012.5
20260905070901 77 180 0.0 0.0 0.00 0.00 0.00 84 1012.8
20260905070101 77 180 0.0 0.0 0.00 0.00 0.00 84 1012.8
20260905064901 78 180 0.0 0.0 0.00 0.00 0.00 84 1012.8
20260905063902 78 180 0.0 0.0 0.00 0.00 0.00 84 1012.8
20260905062902 78 203 0.0 0.0 0.00 0.00 0.00 84 1012.8
20260905061901 78 158 0.0 0.0 0.00 0.00 0.00 84 1012.8
20260905060902 78 180 0.0 0.0 0.00 0.00 0.00 84 1012.8
20260905054902 78 270 0.0 0.0 0.00 0.00 0.00 83 1012.8
20260905053901 78 225 0.0 0.0 0.00 0.00 0.00 82 1012.8
20260905052901 78 203 0.0 0.0 0.00 0.00 0.00 82 1012.8
20260905051902 78 203 0.0 0.0 0.00 0.00 0.00 81 1012.8
20260905050901 79 180 0.0 0.0 0.00 0.00 0.00 81 1012.8
20260905044901 80 203 0.0 0.0 0.00 0.00 0.00 79 1013.2
20260905043902 80 315 0.0 0.0 0.00 0.00 0.00 79 1013.2
20260905042901 80 180 0.0 0.0 0.00 0.00 0.00 79 1013.2
20260905041901 80 293 0.0 0.0 0.00 0.00 0.00 78 1013.2
20260905040901 81 180 0.0 0.0 0.00 0.00 0.00 78 1013.2
20260905034901 81 180 0.0 0.0 0.00 0.00 0.00 77 1013.2
20260905033902 82 180 0.0 0.0 0.00 0.00 0.00 77 1013.2
20260905032901 82 203 0.0 0.0 0.00 0.00 0.00 76 1013.2
20260905031902 83 45 0.0 1.7 0.00 0.00 0.00 76 1013.2
20260905030902 83 0 0.0 0.0 0.00 0.00 0.00 75 1013.2
20260905024902 84 158 0.0 1.7 0.00 0.00 0.00 74 1013.2
20260905023901 84 135 0.9 1.7 0.00 0.00 0.00 74 1013.2
20260905022903 84 135 0.0 1.7 0.00 0.00 0.00 74 1012.8
20260905021901 84 203 0.0 1.7 0.00 0.00 0.00 74 1012.8
20260905020902 84 68 1.7 1.7 0.00 0.00 0.00 75 1012.8
20260905014901 84 293 0.0 3.5 0.00 0.00 0.00 74 1012.8
20260905013902 85 180 0.0 1.7 0.00 0.00 0.00 71 1012.5
20260905012902 86 158 0.0 0.9 0.00 0.00 0.00 71 1012.5
20260905011901 86 180 0.0 1.7 0.00 0.00 0.00 69 1012.5
20260905010902 86 180 0.0 0.0 0.00 0.00 0.00 67 1012.5
20260905004901 87 90 0.0 1.7 0.00 0.00 0.00 67 1012.1
20260905003902 88 180 0.0 1.7 0.00 0.00 0.00 67 1012.1
20260905002901 88 45 1.7 1.7 0.00 0.00 0.00 68 1012.1
20260905001901 89 45 0.9 0.9 0.00 0.00 0.00 67 1012.1
20260905000902 90 158 0.0 0.0 0.00 0.00 0.00 64 1012.1
20260904234902 91 135 0.0 1.7 0.00 0.00 0.00 63 1012.1
20260904233902 92 203 0.0 0.0 0.00 0.00 0.00 63 1012.1
20260904232901 92 45 0.0 0.0 0.00 0.00 0.00 61 1012.1
20260904231902 93 180 0.0 0.0 0.00 0.00 0.00 59 1012.1
20260904230902 93 225 0.0 0.0 0.00 0.00 0.00 57 1012.1
20260904224902 94 180 0.0 2.6 0.00 0.00 0.00 55 1012.1